sensor_id;sensor_type;location;lat;lon;timestamp;P1;durP1;ratioP1;P2;durP2;ratioP2
55539;SDS011;41384;51.418;7.286;2023-02-15T00:01:37;22.88;;;11.25;;
55539;SDS011;41384;51.418;7.286;2023-02-15T00:04:04;22.30;;;11.80;;
55539;SDS011;41384;51.418;7.286;2023-02-15T00:06:30;25.60;;;12.15;;
55539;SDS011;41384;51.418;7.286;2023-02-15T00:08:56;20.65;;;11.18;;
55539;SDS011;41384;51.418;7.286;2023-02-15T00:11:22;22.52;;;12.48;;
55539;SDS011;41384;51.418;7.286;2023-02-15T00:14:11;22.50;;;11.45;;
55539;SDS011;41384;51.418;7.286;2023-02-15T00:16:41;19.48;;;11.20;;
55539;SDS011;41384;51.418;7.286;2023-02-15T00:19:08;20.90;;;10.88;;
55539;SDS011;41384;51.418;7.286;2023-02-15T00:21:35;19.48;;;11.00;;
55539;SDS011;41384;51.418;7.286;2023-02-15T00:24:02;22.30;;;12.07;;
55539;SDS011;41384;51.418;7.286;2023-02-15T00:26:29;22.05;;;11.77;;
55539;SDS011;41384;51.418;7.286;2023-02-15T00:28:55;24.65;;;11.80;;
55539;SDS011;41384;51.418;7.286;2023-02-15T00:31:23;20.73;;;11.68;;
55539;SDS011;41384;51.418;7.286;2023-02-15T00:33:48;21.65;;;11.65;;
55539;SDS011;41384;51.418;7.286;2023-02-15T00:36:13;26.23;;;12.02;;
55539;SDS011;41384;51.418;7.286;2023-02-15T00:38:39;22.90;;;12.00;;
55539;SDS011;41384;51.418;7.286;2023-02-15T00:41:05;22.30;;;12.05;;
55539;SDS011;41384;51.418;7.286;2023-02-15T00:43:32;26.63;;;12.60;;
55539;SDS011;41384;51.418;7.286;2023-02-15T00:45:58;22.17;;;11.32;;
55539;SDS011;41384;51.418;7.286;2023-02-15T00:48:23;22.92;;;12.80;;
55539;SDS011;41384;51.418;7.286;2023-02-15T00:50:49;23.35;;;11.55;;
55539;SDS011;41384;51.418;7.286;2023-02-15T00:53:16;23.25;;;12.80;;
55539;SDS011;41384;51.418;7.286;2023-02-15T00:55:42;22.80;;;13.07;;
55539;SDS011;41384;51.418;7.286;2023-02-15T00:58:08;23.88;;;12.70;;
55539;SDS011;41384;51.418;7.286;2023-02-15T01:00:35;25.35;;;12.48;;
55539;SDS011;41384;51.418;7.286;2023-02-15T01:03:00;24.38;;;12.43;;
55539;SDS011;41384;51.418;7.286;2023-02-15T01:05:26;25.63;;;12.40;;
55539;SDS011;41384;51.418;7.286;2023-02-15T01:07:51;22.92;;;12.40;;
55539;SDS011;41384;51.418;7.286;2023-02-15T01:10:17;23.90;;;13.18;;
55539;SDS011;41384;51.418;7.286;2023-02-15T01:12:42;26.00;;;13.35;;
55539;SDS011;41384;51.418;7.286;2023-02-15T01:15:08;23.10;;;12.15;;
55539;SDS011;41384;51.418;7.286;2023-02-15T01:17:34;22.67;;;11.90;;
55539;SDS011;41384;51.418;7.286;2023-02-15T01:19:59;22.13;;;12.27;;
55539;SDS011;41384;51.418;7.286;2023-02-15T01:22:25;24.80;;;12.63;;
55539;SDS011;41384;51.418;7.286;2023-02-15T01:24:50;23.17;;;12.70;;
55539;SDS011;41384;51.418;7.286;2023-02-15T01:27:15;29.52;;;13.98;;
55539;SDS011;41384;51.418;7.286;2023-02-15T01:29:41;20.95;;;12.18;;
55539;SDS011;41384;51.418;7.286;2023-02-15T01:32:06;23.13;;;12.73;;
55539;SDS011;41384;51.418;7.286;2023-02-15T01:34:31;27.02;;;13.20;;
55539;SDS011;41384;51.418;7.286;2023-02-15T01:36:56;27.02;;;13.38;;
55539;SDS011;41384;51.418;7.286;2023-02-15T01:39:22;26.65;;;13.40;;
55539;SDS011;41384;51.418;7.286;2023-02-15T01:41:47;23.52;;;12.48;;
55539;SDS011;41384;51.418;7.286;2023-02-15T01:47:15;24.92;;;12.70;;
55539;SDS011;41384;51.418;7.286;2023-02-15T01:49:47;26.27;;;12.38;;
55539;SDS011;41384;51.418;7.286;2023-02-15T01:52:17;25.63;;;13.30;;
55539;SDS011;41384;51.418;7.286;2023-02-15T01:54:43;23.65;;;12.77;;
55539;SDS011;41384;51.418;7.286;2023-02-15T01:57:13;24.85;;;12.75;;
55539;SDS011;41384;51.418;7.286;2023-02-15T01:59:43;22.48;;;12.77;;
55539;SDS011;41384;51.418;7.286;2023-02-15T02:02:13;24.52;;;12.80;;
55539;SDS011;41384;51.418;7.286;2023-02-15T02:04:44;22.02;;;12.95;;
55539;SDS011;41384;51.418;7.286;2023-02-15T02:07:14;26.23;;;13.75;;
55539;SDS011;41384;51.418;7.286;2023-02-15T02:09:42;23.63;;;13.25;;
55539;SDS011;41384;51.418;7.286;2023-02-15T02:12:09;26.60;;;13.35;;
55539;SDS011;41384;51.418;7.286;2023-02-15T02:14:35;23.80;;;13.38;;
55539;SDS011;41384;51.418;7.286;2023-02-15T02:20:08;25.08;;;12.73;;
55539;SDS011;41384;51.418;7.286;2023-02-15T02:25:35;29.10;;;13.55;;
55539;SDS011;41384;51.418;7.286;2023-02-15T02:28:27;24.65;;;13.68;;
55539;SDS011;41384;51.418;7.286;2023-02-15T02:31:39;25.23;;;12.82;;
55539;SDS011;41384;51.418;7.286;2023-02-15T02:34:25;28.08;;;13.15;;
55539;SDS011;41384;51.418;7.286;2023-02-15T02:36:59;26.58;;;12.73;;
55539;SDS011;41384;51.418;7.286;2023-02-15T02:42:29;26.92;;;13.30;;
55539;SDS011;41384;51.418;7.286;2023-02-15T02:45:16;29.85;;;14.60;;
55539;SDS011;41384;51.418;7.286;2023-02-15T02:47:43;26.20;;;13.52;;
55539;SDS011;41384;51.418;7.286;2023-02-15T02:50:14;25.80;;;13.57;;
55539;SDS011;41384;51.418;7.286;2023-02-15T02:52:47;29.52;;;14.40;;
55539;SDS011;41384;51.418;7.286;2023-02-15T02:58:11;26.90;;;13.30;;
55539;SDS011;41384;51.418;7.286;2023-02-15T03:00:46;29.67;;;13.88;;
55539;SDS011;41384;51.418;7.286;2023-02-15T03:03:21;24.50;;;13.45;;
55539;SDS011;41384;51.418;7.286;2023-02-15T03:05:50;27.58;;;13.70;;
55539;SDS011;41384;51.418;7.286;2023-02-15T03:08:18;24.35;;;13.13;;
55539;SDS011;41384;51.418;7.286;2023-02-15T03:10:47;23.95;;;13.25;;
55539;SDS011;41384;51.418;7.286;2023-02-15T03:13:16;24.80;;;13.25;;
55539;SDS011;41384;51.418;7.286;2023-02-15T03:15:42;25.98;;;14.13;;
55539;SDS011;41384;51.418;7.286;2023-02-15T03:18:29;29.40;;;14.75;;
55539;SDS011;41384;51.418;7.286;2023-02-15T03:20:58;24.52;;;13.32;;
55539;SDS011;41384;51.418;7.286;2023-02-15T03:23:26;28.88;;;14.75;;
55539;SDS011;41384;51.418;7.286;2023-02-15T03:25:58;26.50;;;14.38;;
55539;SDS011;41384;51.418;7.286;2023-02-15T03:28:30;26.67;;;14.48;;
55539;SDS011;41384;51.418;7.286;2023-02-15T03:31:01;27.30;;;13.38;;
55539;SDS011;41384;51.418;7.286;2023-02-15T03:33:29;26.38;;;13.82;;
55539;SDS011;41384;51.418;7.286;2023-02-15T03:36:18;25.42;;;13.38;;
55539;SDS011;41384;51.418;7.286;2023-02-15T03:43:57;29.70;;;14.15;;
55539;SDS011;41384;51.418;7.286;2023-02-15T03:52:15;26.48;;;13.70;;
55539;SDS011;41384;51.418;7.286;2023-02-15T03:54:42;26.15;;;13.82;;
55539;SDS011;41384;51.418;7.286;2023-02-15T03:57:27;24.35;;;13.55;;
55539;SDS011;41384;51.418;7.286;2023-02-15T04:00:19;26.42;;;13.05;;
55539;SDS011;41384;51.418;7.286;2023-02-15T04:03:16;24.42;;;13.35;;
55539;SDS011;41384;51.418;7.286;2023-02-15T04:05:56;29.13;;;13.93;;
55539;SDS011;41384;51.418;7.286;2023-02-15T04:08:21;29.55;;;13.35;;
55539;SDS011;41384;51.418;7.286;2023-02-15T04:11:06;27.45;;;14.27;;
55539;SDS011;41384;51.418;7.286;2023-02-15T04:13:32;25.45;;;13.75;;
55539;SDS011;41384;51.418;7.286;2023-02-15T04:15:57;28.33;;;14.75;;
55539;SDS011;41384;51.418;7.286;2023-02-15T04:18:29;30.60;;;14.43;;
55539;SDS011;41384;51.418;7.286;2023-02-15T04:21:13;31.60;;;15.05;;
55539;SDS011;41384;51.418;7.286;2023-02-15T04:23:57;31.42;;;14.52;;
55539;SDS011;41384;51.418;7.286;2023-02-15T04:26:41;26.02;;;13.73;;
55539;SDS011;41384;51.418;7.286;2023-02-15T04:29:06;28.15;;;13.27;;
55539;SDS011;41384;51.418;7.286;2023-02-15T04:31:32;28.75;;;14.35;;
55539;SDS011;41384;51.418;7.286;2023-02-15T04:33:57;26.83;;;14.43;;
55539;SDS011;41384;51.418;7.286;2023-02-15T04:36:22;26.65;;;12.75;;
55539;SDS011;41384;51.418;7.286;2023-02-15T04:38:47;27.45;;;14.15;;
55539;SDS011;41384;51.418;7.286;2023-02-15T04:41:13;26.45;;;14.73;;
55539;SDS011;41384;51.418;7.286;2023-02-15T04:43:38;24.35;;;13.60;;
55539;SDS011;41384;51.418;7.286;2023-02-15T04:46:03;27.25;;;14.85;;
55539;SDS011;41384;51.418;7.286;2023-02-15T04:48:29;27.38;;;14.55;;
55539;SDS011;41384;51.418;7.286;2023-02-15T04:50:54;28.58;;;14.55;;
55539;SDS011;41384;51.418;7.286;2023-02-15T04:53:19;26.95;;;13.45;;
55539;SDS011;41384;51.418;7.286;2023-02-15T04:55:45;23.88;;;13.70;;
55539;SDS011;41384;51.418;7.286;2023-02-15T04:58:10;28.80;;;14.10;;
55539;SDS011;41384;51.418;7.286;2023-02-15T05:00:35;25.95;;;13.98;;
55539;SDS011;41384;51.418;7.286;2023-02-15T05:03:00;26.25;;;14.50;;
55539;SDS011;41384;51.418;7.286;2023-02-15T05:05:26;27.70;;;13.80;;
55539;SDS011;41384;51.418;7.286;2023-02-15T05:07:51;27.10;;;14.05;;
55539;SDS011;41384;51.418;7.286;2023-02-15T05:10:16;28.08;;;13.20;;
55539;SDS011;41384;51.418;7.286;2023-02-15T05:12:42;30.05;;;14.70;;
55539;SDS011;41384;51.418;7.286;2023-02-15T05:15:07;26.85;;;12.90;;
55539;SDS011;41384;51.418;7.286;2023-02-15T05:17:33;28.23;;;14.18;;
55539;SDS011;41384;51.418;7.286;2023-02-15T05:19:58;27.08;;;14.70;;
55539;SDS011;41384;51.418;7.286;2023-02-15T05:22:23;29.60;;;14.75;;
55539;SDS011;41384;51.418;7.286;2023-02-15T05:24:49;28.25;;;14.60;;
55539;SDS011;41384;51.418;7.286;2023-02-15T05:27:32;30.77;;;14.85;;
55539;SDS011;41384;51.418;7.286;2023-02-15T05:30:17;27.60;;;13.88;;
55539;SDS011;41384;51.418;7.286;2023-02-15T05:32:42;28.85;;;15.10;;
55539;SDS011;41384;51.418;7.286;2023-02-15T05:35:07;23.90;;;13.65;;
55539;SDS011;41384;51.418;7.286;2023-02-15T05:37:33;25.75;;;13.63;;
55539;SDS011;41384;51.418;7.286;2023-02-15T05:39:58;31.05;;;14.88;;
55539;SDS011;41384;51.418;7.286;2023-02-15T05:42:23;29.80;;;14.32;;
55539;SDS011;41384;51.418;7.286;2023-02-15T05:44:49;28.90;;;15.02;;
55539;SDS011;41384;51.418;7.286;2023-02-15T05:47:14;26.17;;;13.50;;
55539;SDS011;41384;51.418;7.286;2023-02-15T05:49:39;28.23;;;14.10;;
55539;SDS011;41384;51.418;7.286;2023-02-15T05:52:05;27.25;;;14.07;;
55539;SDS011;41384;51.418;7.286;2023-02-15T05:54:30;33.95;;;15.50;;
55539;SDS011;41384;51.418;7.286;2023-02-15T05:56:55;29.45;;;15.10;;
55539;SDS011;41384;51.418;7.286;2023-02-15T05:59:21;26.85;;;14.65;;
55539;SDS011;41384;51.418;7.286;2023-02-15T06:01:46;29.10;;;14.52;;
55539;SDS011;41384;51.418;7.286;2023-02-15T06:04:12;25.42;;;13.70;;
55539;SDS011;41384;51.418;7.286;2023-02-15T06:06:37;26.42;;;13.32;;
55539;SDS011;41384;51.418;7.286;2023-02-15T06:09:03;29.20;;;15.05;;
55539;SDS011;41384;51.418;7.286;2023-02-15T06:11:28;26.00;;;13.75;;
55539;SDS011;41384;51.418;7.286;2023-02-15T06:13:53;28.15;;;13.75;;
55539;SDS011;41384;51.418;7.286;2023-02-15T06:16:19;26.50;;;14.45;;
55539;SDS011;41384;51.418;7.286;2023-02-15T06:18:44;24.30;;;13.15;;
55539;SDS011;41384;51.418;7.286;2023-02-15T06:21:09;28.70;;;14.02;;
55539;SDS011;41384;51.418;7.286;2023-02-15T06:23:34;27.05;;;13.65;;
55539;SDS011;41384;51.418;7.286;2023-02-15T06:26:00;28.85;;;14.63;;
55539;SDS011;41384;51.418;7.286;2023-02-15T06:28:25;25.83;;;14.05;;
55539;SDS011;41384;51.418;7.286;2023-02-15T06:30:51;26.85;;;13.32;;
55539;SDS011;41384;51.418;7.286;2023-02-15T06:33:17;23.30;;;13.23;;
55539;SDS011;41384;51.418;7.286;2023-02-15T06:35:42;27.38;;;13.30;;
55539;SDS011;41384;51.418;7.286;2023-02-15T06:38:08;24.75;;;13.63;;
55539;SDS011;41384;51.418;7.286;2023-02-15T06:40:33;26.33;;;12.73;;
55539;SDS011;41384;51.418;7.286;2023-02-15T06:42:58;27.60;;;13.32;;
55539;SDS011;41384;51.418;7.286;2023-02-15T06:45:23;28.00;;;12.55;;
55539;SDS011;41384;51.418;7.286;2023-02-15T06:47:49;24.73;;;14.38;;
55539;SDS011;41384;51.418;7.286;2023-02-15T06:50:14;26.30;;;11.75;;
55539;SDS011;41384;51.418;7.286;2023-02-15T06:52:39;28.50;;;14.20;;
55539;SDS011;41384;51.418;7.286;2023-02-15T06:55:04;28.23;;;13.68;;
55539;SDS011;41384;51.418;7.286;2023-02-15T06:57:31;28.30;;;13.00;;
55539;SDS011;41384;51.418;7.286;2023-02-15T06:59:57;28.83;;;13.18;;
55539;SDS011;41384;51.418;7.286;2023-02-15T07:02:23;28.80;;;13.73;;
55539;SDS011;41384;51.418;7.286;2023-02-15T07:04:48;27.33;;;12.57;;
55539;SDS011;41384;51.418;7.286;2023-02-15T07:07:13;26.33;;;12.43;;
55539;SDS011;41384;51.418;7.286;2023-02-15T07:09:39;27.38;;;12.73;;
55539;SDS011;41384;51.418;7.286;2023-02-15T07:12:04;25.92;;;12.88;;
55539;SDS011;41384;51.418;7.286;2023-02-15T07:14:49;25.65;;;13.15;;
55539;SDS011;41384;51.418;7.286;2023-02-15T07:17:14;24.90;;;12.50;;
55539;SDS011;41384;51.418;7.286;2023-02-15T07:19:39;23.75;;;12.48;;
55539;SDS011;41384;51.418;7.286;2023-02-15T07:22:04;23.63;;;12.20;;
55539;SDS011;41384;51.418;7.286;2023-02-15T07:24:30;24.23;;;12.75;;
55539;SDS011;41384;51.418;7.286;2023-02-15T07:26:55;26.33;;;13.25;;
55539;SDS011;41384;51.418;7.286;2023-02-15T07:29:22;23.58;;;13.15;;
55539;SDS011;41384;51.418;7.286;2023-02-15T07:31:48;23.48;;;12.07;;
55539;SDS011;41384;51.418;7.286;2023-02-15T07:34:13;26.27;;;12.05;;
55539;SDS011;41384;51.418;7.286;2023-02-15T07:36:38;20.70;;;11.63;;
55539;SDS011;41384;51.418;7.286;2023-02-15T07:39:04;28.88;;;12.20;;
55539;SDS011;41384;51.418;7.286;2023-02-15T07:41:29;22.17;;;11.70;;
55539;SDS011;41384;51.418;7.286;2023-02-15T07:43:54;25.25;;;11.75;;
55539;SDS011;41384;51.418;7.286;2023-02-15T07:46:19;23.13;;;11.98;;
55539;SDS011;41384;51.418;7.286;2023-02-15T07:48:45;20.48;;;11.30;;
55539;SDS011;41384;51.418;7.286;2023-02-15T07:51:12;21.00;;;11.52;;
55539;SDS011;41384;51.418;7.286;2023-02-15T07:53:38;24.30;;;12.40;;
55539;SDS011;41384;51.418;7.286;2023-02-15T07:56:05;23.83;;;12.23;;
55539;SDS011;41384;51.418;7.286;2023-02-15T07:58:32;27.75;;;12.43;;
55539;SDS011;41384;51.418;7.286;2023-02-15T08:01:17;23.30;;;12.32;;
55539;SDS011;41384;51.418;7.286;2023-02-15T08:03:47;24.33;;;12.10;;
55539;SDS011;41384;51.418;7.286;2023-02-15T08:06:13;24.95;;;11.85;;
55539;SDS011;41384;51.418;7.286;2023-02-15T08:08:38;27.33;;;11.45;;
55539;SDS011;41384;51.418;7.286;2023-02-15T08:11:05;22.30;;;11.57;;
55539;SDS011;41384;51.418;7.286;2023-02-15T08:13:54;23.10;;;11.43;;
55539;SDS011;41384;51.418;7.286;2023-02-15T08:16:21;21.30;;;11.45;;
55539;SDS011;41384;51.418;7.286;2023-02-15T08:18:46;21.15;;;11.73;;
55539;SDS011;41384;51.418;7.286;2023-02-15T08:21:12;25.33;;;11.35;;
55539;SDS011;41384;51.418;7.286;2023-02-15T08:23:38;20.67;;;10.88;;
55539;SDS011;41384;51.418;7.286;2023-02-15T08:26:03;21.65;;;11.50;;
55539;SDS011;41384;51.418;7.286;2023-02-15T08:28:29;21.17;;;11.73;;
55539;SDS011;41384;51.418;7.286;2023-02-15T08:30:54;22.95;;;11.57;;
55539;SDS011;41384;51.418;7.286;2023-02-15T08:33:20;21.30;;;10.68;;
55539;SDS011;41384;51.418;7.286;2023-02-15T08:35:45;18.58;;;10.20;;
55539;SDS011;41384;51.418;7.286;2023-02-15T08:38:10;23.38;;;11.18;;
55539;SDS011;41384;51.418;7.286;2023-02-15T08:40:36;22.38;;;11.15;;
55539;SDS011;41384;51.418;7.286;2023-02-15T08:43:03;22.75;;;10.85;;
55539;SDS011;41384;51.418;7.286;2023-02-15T08:45:28;23.92;;;10.65;;
55539;SDS011;41384;51.418;7.286;2023-02-15T08:47:53;20.48;;;10.65;;
55539;SDS011;41384;51.418;7.286;2023-02-15T08:50:18;20.25;;;10.32;;
55539;SDS011;41384;51.418;7.286;2023-02-15T08:52:44;21.05;;;10.45;;
55539;SDS011;41384;51.418;7.286;2023-02-15T08:55:09;18.52;;;9.35;;
55539;SDS011;41384;51.418;7.286;2023-02-15T08:57:35;18.42;;;10.55;;
55539;SDS011;41384;51.418;7.286;2023-02-15T09:00:00;19.05;;;10.15;;
55539;SDS011;41384;51.418;7.286;2023-02-15T09:02:26;19.60;;;9.93;;
55539;SDS011;41384;51.418;7.286;2023-02-15T09:04:52;21.33;;;10.00;;
55539;SDS011;41384;51.418;7.286;2023-02-15T09:07:17;19.27;;;9.48;;
55539;SDS011;41384;51.418;7.286;2023-02-15T09:09:43;22.10;;;10.40;;
55539;SDS011;41384;51.418;7.286;2023-02-15T09:12:10;22.58;;;10.13;;
55539;SDS011;41384;51.418;7.286;2023-02-15T09:14:35;24.85;;;9.98;;
55539;SDS011;41384;51.418;7.286;2023-02-15T09:17:00;20.95;;;10.25;;
55539;SDS011;41384;51.418;7.286;2023-02-15T09:19:26;15.95;;;9.00;;
55539;SDS011;41384;51.418;7.286;2023-02-15T09:21:51;18.42;;;8.93;;
55539;SDS011;41384;51.418;7.286;2023-02-15T09:24:16;17.08;;;8.82;;
55539;SDS011;41384;51.418;7.286;2023-02-15T09:26:44;19.40;;;8.82;;
55539;SDS011;41384;51.418;7.286;2023-02-15T09:29:12;20.00;;;9.25;;
55539;SDS011;41384;51.418;7.286;2023-02-15T09:31:39;19.90;;;9.77;;
55539;SDS011;41384;51.418;7.286;2023-02-15T09:34:08;17.55;;;8.00;;
55539;SDS011;41384;51.418;7.286;2023-02-15T09:36:36;18.35;;;8.93;;
55539;SDS011;41384;51.418;7.286;2023-02-15T09:39:21;20.10;;;9.35;;
55539;SDS011;41384;51.418;7.286;2023-02-15T09:49:28;16.02;;;7.95;;
55539;SDS011;41384;51.418;7.286;2023-02-15T10:08:31;16.63;;;8.50;;
55539;SDS011;41384;51.418;7.286;2023-02-15T10:14:02;15.57;;;7.82;;
55539;SDS011;41384;51.418;7.286;2023-02-15T10:17:11;15.93;;;7.82;;
55539;SDS011;41384;51.418;7.286;2023-02-15T10:22:30;15.20;;;8.02;;
55539;SDS011;41384;51.418;7.286;2023-02-15T10:25:05;18.02;;;8.48;;
55539;SDS011;41384;51.418;7.286;2023-02-15T10:27:45;17.65;;;8.45;;
55539;SDS011;41384;51.418;7.286;2023-02-15T10:30:15;16.70;;;7.65;;
55539;SDS011;41384;51.418;7.286;2023-02-15T10:33:21;16.98;;;8.27;;
55539;SDS011;41384;51.418;7.286;2023-02-15T10:36:21;15.85;;;8.30;;
55539;SDS011;41384;51.418;7.286;2023-02-15T10:38:58;17.23;;;7.93;;
55539;SDS011;41384;51.418;7.286;2023-02-15T10:41:39;21.50;;;8.00;;
55539;SDS011;41384;51.418;7.286;2023-02-15T10:44:20;15.95;;;6.93;;
55539;SDS011;41384;51.418;7.286;2023-02-15T10:46:53;12.38;;;6.93;;
55539;SDS011;41384;51.418;7.286;2023-02-15T10:49:37;14.77;;;7.28;;
55539;SDS011;41384;51.418;7.286;2023-02-15T10:52:20;15.07;;;7.40;;
55539;SDS011;41384;51.418;7.286;2023-02-15T10:55:06;12.80;;;6.43;;
55539;SDS011;41384;51.418;7.286;2023-02-15T11:00:29;11.15;;;6.50;;
55539;SDS011;41384;51.418;7.286;2023-02-15T11:03:03;13.18;;;6.40;;
55539;SDS011;41384;51.418;7.286;2023-02-15T11:08:37;12.15;;;6.07;;
55539;SDS011;41384;51.418;7.286;2023-02-15T11:11:23;12.93;;;6.75;;
55539;SDS011;41384;51.418;7.286;2023-02-15T11:13:56;12.23;;;7.10;;
55539;SDS011;41384;51.418;7.286;2023-02-15T11:16:28;11.63;;;6.53;;
55539;SDS011;41384;51.418;7.286;2023-02-15T11:18:58;11.07;;;6.63;;
55539;SDS011;41384;51.418;7.286;2023-02-15T11:26:38;10.98;;;6.28;;
55539;SDS011;41384;51.418;7.286;2023-02-15T11:34:30;9.60;;;4.82;;
55539;SDS011;41384;51.418;7.286;2023-02-15T11:37:01;10.27;;;5.57;;
55539;SDS011;41384;51.418;7.286;2023-02-15T11:39:31;11.15;;;5.43;;
55539;SDS011;41384;51.418;7.286;2023-02-15T11:42:04;10.40;;;5.70;;
55539;SDS011;41384;51.418;7.286;2023-02-15T11:44:39;12.93;;;6.57;;
55539;SDS011;41384;51.418;7.286;2023-02-15T11:47:10;11.95;;;5.80;;
55539;SDS011;41384;51.418;7.286;2023-02-15T11:49:36;10.90;;;5.55;;
55539;SDS011;41384;51.418;7.286;2023-02-15T11:52:06;13.40;;;5.60;;
55539;SDS011;41384;51.418;7.286;2023-02-15T11:54:36;12.10;;;5.70;;
55539;SDS011;41384;51.418;7.286;2023-02-15T11:57:11;11.50;;;5.55;;
55539;SDS011;41384;51.418;7.286;2023-02-15T12:00:10;14.43;;;6.05;;
55539;SDS011;41384;51.418;7.286;2023-02-15T12:02:43;11.23;;;5.80;;
55539;SDS011;41384;51.418;7.286;2023-02-15T12:05:13;11.43;;;6.03;;
55539;SDS011;41384;51.418;7.286;2023-02-15T12:07:46;12.68;;;5.53;;
55539;SDS011;41384;51.418;7.286;2023-02-15T12:10:19;13.48;;;5.70;;
55539;SDS011;41384;51.418;7.286;2023-02-15T12:12:54;12.07;;;5.35;;
55539;SDS011;41384;51.418;7.286;2023-02-15T12:15:34;12.40;;;6.10;;
55539;SDS011;41384;51.418;7.286;2023-02-15T12:18:01;12.77;;;5.82;;
55539;SDS011;41384;51.418;7.286;2023-02-15T12:20:30;12.60;;;6.10;;
55539;SDS011;41384;51.418;7.286;2023-02-15T12:23:02;12.40;;;5.90;;
55539;SDS011;41384;51.418;7.286;2023-02-15T12:25:50;13.35;;;6.13;;
55539;SDS011;41384;51.418;7.286;2023-02-15T12:28:36;10.40;;;5.07;;
55539;SDS011;41384;51.418;7.286;2023-02-15T12:31:49;11.32;;;5.70;;
55539;SDS011;41384;51.418;7.286;2023-02-15T12:34:54;12.93;;;5.53;;
55539;SDS011;41384;51.418;7.286;2023-02-15T12:39:35;13.32;;;5.93;;
55539;SDS011;41384;51.418;7.286;2023-02-15T12:42:02;15.57;;;5.82;;
55539;SDS011;41384;51.418;7.286;2023-02-15T12:44:40;12.65;;;5.82;;
55539;SDS011;41384;51.418;7.286;2023-02-15T12:47:19;10.90;;;5.70;;
55539;SDS011;41384;51.418;7.286;2023-02-15T12:49:45;9.07;;;5.13;;
55539;SDS011;41384;51.418;7.286;2023-02-15T12:52:32;9.38;;;5.50;;
55539;SDS011;41384;51.418;7.286;2023-02-15T12:55:09;12.55;;;6.10;;
55539;SDS011;41384;51.418;7.286;2023-02-15T12:58:16;10.52;;;5.80;;
55539;SDS011;41384;51.418;7.286;2023-02-15T13:00:46;10.95;;;5.47;;
55539;SDS011;41384;51.418;7.286;2023-02-15T13:03:19;10.90;;;5.57;;
55539;SDS011;41384;51.418;7.286;2023-02-15T13:05:47;14.15;;;5.63;;
55539;SDS011;41384;51.418;7.286;2023-02-15T13:08:20;10.88;;;5.45;;
55539;SDS011;41384;51.418;7.286;2023-02-15T13:10:53;12.65;;;5.82;;
55539;SDS011;41384;51.418;7.286;2023-02-15T13:13:22;10.27;;;5.50;;
55539;SDS011;41384;51.418;7.286;2023-02-15T13:15:52;11.05;;;5.45;;
55539;SDS011;41384;51.418;7.286;2023-02-15T13:18:28;13.45;;;6.10;;
55539;SDS011;41384;51.418;7.286;2023-02-15T13:20:56;9.82;;;5.10;;
55539;SDS011;41384;51.418;7.286;2023-02-15T13:23:28;9.13;;;5.25;;
55539;SDS011;41384;51.418;7.286;2023-02-15T13:25:57;12.00;;;5.30;;
55539;SDS011;41384;51.418;7.286;2023-02-15T13:28:26;10.90;;;5.20;;
55539;SDS011;41384;51.418;7.286;2023-02-15T13:31:01;11.25;;;5.55;;
55539;SDS011;41384;51.418;7.286;2023-02-15T13:33:31;11.05;;;5.65;;
55539;SDS011;41384;51.418;7.286;2023-02-15T13:41:29;15.60;;;5.93;;
55539;SDS011;41384;51.418;7.286;2023-02-15T13:44:03;12.32;;;5.78;;
55539;SDS011;41384;51.418;7.286;2023-02-15T13:46:42;12.20;;;6.22;;
55539;SDS011;41384;51.418;7.286;2023-02-15T13:49:21;11.35;;;5.40;;
55539;SDS011;41384;51.418;7.286;2023-02-15T14:05:48;14.10;;;6.13;;
55539;SDS011;41384;51.418;7.286;2023-02-15T14:08:36;13.00;;;5.97;;
55539;SDS011;41384;51.418;7.286;2023-02-15T14:13:55;10.60;;;4.72;;
55539;SDS011;41384;51.418;7.286;2023-02-15T14:17:37;13.25;;;5.65;;
55539;SDS011;41384;51.418;7.286;2023-02-15T14:19:45;9.23;;;4.82;;
55539;SDS011;41384;51.418;7.286;2023-02-15T14:25:16;11.30;;;4.50;;
55539;SDS011;41384;51.418;7.286;2023-02-15T14:27:52;11.50;;;5.50;;
55539;SDS011;41384;51.418;7.286;2023-02-15T14:30:27;11.38;;;4.95;;
55539;SDS011;41384;51.418;7.286;2023-02-15T14:35:29;11.80;;;5.35;;
55539;SDS011;41384;51.418;7.286;2023-02-15T14:40:49;11.77;;;5.50;;
55539;SDS011;41384;51.418;7.286;2023-02-15T14:43:45;12.57;;;5.28;;
55539;SDS011;41384;51.418;7.286;2023-02-15T14:48:55;13.35;;;5.40;;
55539;SDS011;41384;51.418;7.286;2023-02-15T14:51:53;10.23;;;5.45;;
55539;SDS011;41384;51.418;7.286;2023-02-15T14:56:42;13.65;;;5.68;;
55539;SDS011;41384;51.418;7.286;2023-02-15T14:59:19;10.27;;;5.25;;
55539;SDS011;41384;51.418;7.286;2023-02-15T15:02:01;11.98;;;5.38;;
55539;SDS011;41384;51.418;7.286;2023-02-15T15:07:14;14.20;;;5.45;;
55539;SDS011;41384;51.418;7.286;2023-02-15T15:09:46;13.32;;;5.97;;
55539;SDS011;41384;51.418;7.286;2023-02-15T15:14:51;11.30;;;5.80;;
55539;SDS011;41384;51.418;7.286;2023-02-15T15:20:10;12.18;;;5.60;;
55539;SDS011;41384;51.418;7.286;2023-02-15T15:28:52;13.23;;;6.18;;
55539;SDS011;41384;51.418;7.286;2023-02-15T15:37:04;15.48;;;6.75;;
55539;SDS011;41384;51.418;7.286;2023-02-15T15:47:54;13.13;;;6.15;;
55539;SDS011;41384;51.418;7.286;2023-02-15T15:50:31;14.82;;;7.00;;
55539;SDS011;41384;51.418;7.286;2023-02-15T15:52:58;15.55;;;6.78;;
55539;SDS011;41384;51.418;7.286;2023-02-15T15:55:26;15.30;;;6.80;;
55539;SDS011;41384;51.418;7.286;2023-02-15T15:57:57;13.68;;;6.63;;
55539;SDS011;41384;51.418;7.286;2023-02-15T16:00:34;12.82;;;7.10;;
55539;SDS011;41384;51.418;7.286;2023-02-15T16:03:04;14.70;;;6.80;;
55539;SDS011;41384;51.418;7.286;2023-02-15T16:05:38;15.00;;;6.80;;
55539;SDS011;41384;51.418;7.286;2023-02-15T16:08:04;17.48;;;7.38;;
55539;SDS011;41384;51.418;7.286;2023-02-15T16:10:30;12.80;;;6.30;;
55539;SDS011;41384;51.418;7.286;2023-02-15T16:12:58;12.10;;;6.20;;
55539;SDS011;41384;51.418;7.286;2023-02-15T16:15:25;14.15;;;6.88;;
55539;SDS011;41384;51.418;7.286;2023-02-15T16:17:59;13.10;;;6.40;;
55539;SDS011;41384;51.418;7.286;2023-02-15T16:20:35;11.30;;;6.47;;
55539;SDS011;41384;51.418;7.286;2023-02-15T16:23:08;14.25;;;6.60;;
55539;SDS011;41384;51.418;7.286;2023-02-15T16:28:29;13.93;;;6.93;;
55539;SDS011;41384;51.418;7.286;2023-02-15T16:31:03;13.18;;;6.80;;
55539;SDS011;41384;51.418;7.286;2023-02-15T16:33:37;19.17;;;7.80;;
55539;SDS011;41384;51.418;7.286;2023-02-15T16:36:04;14.00;;;7.03;;
55539;SDS011;41384;51.418;7.286;2023-02-15T16:38:47;16.60;;;7.82;;
55539;SDS011;41384;51.418;7.286;2023-02-15T16:41:26;13.45;;;7.20;;
55539;SDS011;41384;51.418;7.286;2023-02-15T16:43:53;16.42;;;7.07;;
55539;SDS011;41384;51.418;7.286;2023-02-15T16:46:31;12.88;;;6.63;;
55539;SDS011;41384;51.418;7.286;2023-02-15T16:49:02;14.07;;;6.65;;
55539;SDS011;41384;51.418;7.286;2023-02-15T16:51:32;14.73;;;7.40;;
55539;SDS011;41384;51.418;7.286;2023-02-15T16:54:13;13.50;;;6.82;;
55539;SDS011;41384;51.418;7.286;2023-02-15T16:56:44;14.05;;;7.20;;
55539;SDS011;41384;51.418;7.286;2023-02-15T16:59:16;15.20;;;7.35;;
55539;SDS011;41384;51.418;7.286;2023-02-15T17:01:52;14.73;;;7.20;;
55539;SDS011;41384;51.418;7.286;2023-02-15T17:06:58;14.63;;;7.97;;
55539;SDS011;41384;51.418;7.286;2023-02-15T17:09:24;17.08;;;7.82;;
55539;SDS011;41384;51.418;7.286;2023-02-15T17:11:50;19.25;;;8.93;;